Time;durP1;ratioP1;P1;durP2;ratioP2;P2;SDS_P1;SDS_P2;PMS_P1;PMS_P2;Temp;Humidity;BMP_temperature;BMP_pressure;BME280_temperature;BME280_humidity;BME280_pressure;Samples;Min_cycle;Max_cycle;Signal;HPM_P1;HPM_P2
2022/07/21 00:01:35;;;;;;;9.38;6.25;;;28.60;80.00;;;;;;5081437;28;20614;-76
2022/07/21 00:04:01;;;;;;;6.60;5.90;;;28.60;80.20;;;;;;5081235;28;20572;-76
2022/07/21 00:06:26;;;;;;;10.57;5.78;;;28.60;80.50;;;;;;5063574;28;20221;-76
2022/07/21 00:08:52;;;;;;;11.20;6.38;;;28.50;80.70;;;;;;5079707;28;20194;-75
2022/07/21 00:11:18;;;;;;;8.85;6.20;;;28.50;80.80;;;;;;5080790;28;20175;-76
2022/07/21 00:13:43;;;;;;;8.25;5.93;;;28.40;80.80;;;;;;5080895;28;20199;-77
2022/07/21 00:16:09;;;;;;;8.55;6.60;;;28.40;81.10;;;;;;5084247;28;20651;-76
2022/07/21 00:18:35;;;;;;;6.63;5.70;;;28.40;81.40;;;;;;5070346;28;20272;-76
2022/07/21 00:21:01;;;;;;;6.53;5.60;;;28.30;81.50;;;;;;5086538;28;20577;-76
2022/07/21 00:23:27;;;;;;;11.18;6.47;;;28.30;81.80;;;;;;5086336;28;20182;-76
2022/07/21 00:25:54;;;;;;;9.98;6.60;;;28.20;82.00;;;;;;5083350;28;20205;-75
2022/07/21 00:28:20;;;;;;;10.93;6.90;;;28.20;82.10;;;;;;5096347;28;20625;-76
2022/07/21 00:30:46;;;;;;;10.73;5.97;;;28.20;82.40;;;;;;5086106;28;20243;-76
2022/07/21 00:33:12;;;;;;;12.18;6.50;;;28.10;82.60;;;;;;5083992;28;20226;-76
2022/07/21 00:35:38;;;;;;;11.90;7.00;;;28.10;82.90;;;;;;5081807;28;20174;-76
2022/07/21 00:38:04;;;;;;;6.88;6.20;;;28.10;82.90;;;;;;5080332;28;20921;-75
2022/07/21 00:40:30;;;;;;;9.23;6.63;;;28.10;83.00;;;;;;5063315;28;20234;-76
2022/07/21 00:42:55;;;;;;;8.60;6.47;;;28.10;83.20;;;;;;5065742;28;20252;-76
2022/07/21 00:45:21;;;;;;;8.68;6.43;;;28.10;83.50;;;;;;5068907;28;20237;-76
2022/07/21 00:47:47;;;;;;;11.85;6.38;;;28.10;83.40;;;;;;5080524;28;20198;-76
2022/07/21 00:50:15;;;;;;;10.73;6.93;;;28.00;83.30;;;;;;5080054;28;20213;-76
2022/07/21 00:52:41;;;;;;;11.45;6.70;;;28.00;83.80;;;;;;5082617;28;20210;-76
2022/07/21 00:55:10;;;;;;;12.23;6.40;;;28.00;83.90;;;;;;5083441;28;20298;-76
2022/07/21 00:57:36;;;;;;;10.45;6.78;;;27.90;84.00;;;;;;5081250;28;20230;-76
2022/07/21 01:00:05;;;;;;;11.68;6.57;;;27.90;84.20;;;;;;5061713;28;20648;-76
2022/07/21 01:02:33;;;;;;;8.63;6.50;;;27.80;84.40;;;;;;5063660;28;20215;-76
2022/07/21 01:04:59;;;;;;;8.73;6.85;;;27.80;84.60;;;;;;5083213;28;20294;-76
2022/07/21 01:07:24;;;;;;;12.05;6.40;;;27.80;84.80;;;;;;5064382;28;20234;-76
2022/07/21 01:09:50;;;;;;;10.32;6.80;;;27.80;85.10;;;;;;5061496;28;20203;-73
2022/07/21 01:12:16;;;;;;;7.72;6.60;;;27.80;85.10;;;;;;5079809;28;20214;-76
2022/07/21 01:14:41;;;;;;;8.50;6.10;;;27.80;85.20;;;;;;5086552;28;20209;-76
2022/07/21 01:17:07;;;;;;;14.77;7.13;;;27.80;85.20;;;;;;5083133;28;20217;-76
2022/07/21 01:19:32;;;;;;;9.73;6.60;;;27.70;85.40;;;;;;5080795;28;20236;-76
2022/07/21 01:21:59;;;;;;;13.10;6.50;;;27.70;85.30;;;;;;5079697;28;20207;-76
2022/07/21 01:24:24;;;;;;;10.70;6.00;;;27.70;85.40;;;;;;5061905;28;20270;-76
2022/07/21 01:26:52;;;;;;;7.57;6.00;;;27.80;85.40;;;;;;5084295;28;20272;-75
2022/07/21 01:29:18;;;;;;;9.65;6.00;;;27.70;85.50;;;;;;5061229;28;20222;-76
2022/07/21 01:31:45;;;;;;;8.50;6.35;;;27.70;86.50;;;;;;5064414;28;20210;-77
2022/07/21 01:34:11;;;;;;;16.73;7.00;;;27.70;85.90;;;;;;5082830;28;20206;-76
2022/07/21 01:36:37;;;;;;;9.95;6.18;;;27.60;86.00;;;;;;5080185;28;20821;-76
2022/07/21 01:41:48;;;;;;;10.00;6.45;;;27.60;86.70;;;;;;5080032;28;20239;-76
2022/07/21 01:44:14;;;;;;;8.00;5.82;;;27.50;86.60;;;;;;5063632;28;20659;-76
2022/07/21 01:46:43;;;;;;;10.23;6.22;;;27.50;86.80;;;;;;5082481;28;20221;-76
2022/07/21 01:49:10;;;;;;;10.25;6.25;;;27.50;86.70;;;;;;5082195;28;20198;-76
2022/07/21 01:51:35;;;;;;;11.40;6.43;;;27.50;86.60;;;;;;5080611;28;20308;-76
2022/07/21 01:54:01;;;;;;;8.68;6.05;;;27.60;86.80;;;;;;5061207;28;20262;-76
2022/07/21 01:56:27;;;;;;;10.98;6.40;;;27.60;86.90;;;;;;5080481;28;20175;-76
2022/07/21 01:58:54;;;;;;;6.47;5.65;;;27.50;87.70;;;;;;5082292;28;20237;-75
2022/07/21 02:01:22;;;;;;;9.90;6.88;;;27.50;87.10;;;;;;5082610;28;20198;-77
2022/07/21 02:03:49;;;;;;;9.90;6.25;;;27.40;87.50;;;;;;5082326;28;20293;-76
2022/07/21 02:06:15;;;;;;;8.20;5.72;;;27.40;87.60;;;;;;5064472;28;20222;-76
2022/07/21 02:08:42;;;;;;;8.65;6.20;;;27.40;87.90;;;;;;5079757;28;20205;-76
2022/07/21 02:11:08;;;;;;;8.70;6.45;;;27.30;88.00;;;;;;5079281;28;20290;-76
2022/07/21 02:13:34;;;;;;;11.45;6.32;;;27.30;88.20;;;;;;5080688;28;20225;-76
2022/07/21 02:16:00;;;;;;;8.85;5.80;;;27.30;88.30;;;;;;5066927;28;20202;-77
2022/07/21 02:18:25;;;;;;;10.60;7.32;;;27.20;88.60;;;;;;5079040;28;20229;-76
2022/07/21 02:20:51;;;;;;;9.30;6.00;;;27.20;88.80;;;;;;5083451;28;20182;-72
2022/07/21 02:23:18;;;;;;;7.07;5.18;;;27.20;88.80;;;;;;5083771;28;20202;-74
2022/07/21 02:25:43;;;;;;;6.72;5.90;;;27.20;88.80;;;;;;5082724;28;20229;-74
2022/07/21 02:28:10;;;;;;;8.32;6.05;;;27.30;88.90;;;;;;5085990;28;20640;-74
2022/07/21 02:30:36;;;;;;;9.88;6.15;;;27.30;89.00;;;;;;5066008;28;20206;-74
2022/07/21 02:33:01;;;;;;;6.75;5.65;;;27.20;89.30;;;;;;5082604;28;20187;-75
2022/07/21 02:35:27;;;;;;;9.98;7.07;;;27.20;89.60;;;;;;5083920;28;20534;-75
2022/07/21 02:37:53;;;;;;;9.07;6.05;;;27.10;90.00;;;;;;5086032;28;20210;-75
2022/07/21 02:40:19;;;;;;;9.98;6.18;;;27.00;90.10;;;;;;5067894;28;20202;-75
2022/07/21 02:42:44;;;;;;;10.15;5.90;;;27.00;90.20;;;;;;5082828;28;20615;-75
2022/07/21 02:45:10;;;;;;;10.30;5.72;;;27.00;90.30;;;;;;5089079;28;20213;-75
2022/07/21 02:47:52;;;;;;;10.57;5.93;;;27.00;90.40;;;;;;5084322;28;20198;-75
2022/07/21 02:50:19;;;;;;;9.43;5.88;;;27.00;90.60;;;;;;5064349;28;20205;-75
2022/07/21 02:52:45;;;;;;;12.57;5.32;;;26.90;90.70;;;;;;5082664;28;20215;-75
2022/07/21 02:55:11;;;;;;;6.95;5.80;;;26.90;90.70;;;;;;5061841;28;20751;-75
2022/07/21 02:57:36;;;;;;;11.60;5.82;;;26.90;90.80;;;;;;5075050;28;20211;-75
2022/07/21 03:00:05;;;;;;;10.10;5.90;;;26.90;90.80;;;;;;5075383;28;20626;-75
2022/07/21 03:02:30;;;;;;;12.32;7.80;;;26.90;90.90;;;;;;5075957;28;20170;-76
2022/07/21 03:04:56;;;;;;;10.95;6.00;;;26.80;90.90;;;;;;5075427;28;20198;-75
2022/07/21 03:07:21;;;;;;;8.15;5.78;;;26.90;91.00;;;;;;5093576;28;20218;-74
2022/07/21 03:09:47;;;;;;;9.80;5.68;;;26.80;91.00;;;;;;5089711;28;20302;-75
2022/07/21 03:12:12;;;;;;;7.32;5.90;;;26.80;91.10;;;;;;5073387;28;20215;-75
2022/07/21 03:14:38;;;;;;;10.50;6.22;;;26.80;91.20;;;;;;5073880;28;20182;-75
2022/07/21 03:17:04;;;;;;;9.25;5.72;;;26.80;91.20;;;;;;5073128;28;20221;-75
2022/07/21 03:19:29;;;;;;;6.68;5.50;;;26.70;91.60;;;;;;5073021;28;20210;-75
2022/07/21 03:21:55;;;;;;;8.63;5.38;;;26.70;91.40;;;;;;5073178;28;20687;-75
2022/07/21 03:24:20;;;;;;;8.98;5.70;;;26.70;91.40;;;;;;5055019;28;20199;-75
2022/07/21 03:26:46;;;;;;;9.07;5.53;;;26.70;91.40;;;;;;5086507;28;20171;-75
2022/07/21 03:29:11;;;;;;;9.63;6.13;;;26.80;91.40;;;;;;5093178;28;20210;-75
2022/07/21 03:31:37;;;;;;;9.93;5.82;;;26.80;91.50;;;;;;5093005;28;20213;-75
2022/07/21 03:34:03;;;;;;;12.30;6.55;;;26.70;91.70;;;;;;5092939;28;20194;-75
2022/07/21 03:36:29;;;;;;;6.85;5.38;;;26.60;91.80;;;;;;5091334;28;20225;-75
2022/07/21 03:38:54;;;;;;;6.15;5.55;;;26.60;92.00;;;;;;5092402;28;20206;-74
2022/07/21 03:41:20;;;;;;;12.32;6.45;;;26.60;92.10;;;;;;5093178;28;20217;-75
2022/07/21 03:43:46;;;;;;;9.48;5.90;;;26.50;92.10;;;;;;5084562;28;20241;-75
2022/07/21 03:46:11;;;;;;;8.57;6.88;;;26.60;92.20;;;;;;5092844;28;20206;-75
2022/07/21 03:48:38;;;;;;;10.82;6.32;;;27.10;91.90;;;;;;5092186;28;20723;-75
2022/07/21 03:51:04;;;;;;;10.25;6.03;;;27.70;91.00;;;;;;5093123;28;20170;-75
2022/07/21 03:53:29;;;;;;;8.70;6.10;;;27.80;90.60;;;;;;5092859;28;20202;-75
2022/07/21 03:55:56;;;;;;;10.57;5.22;;;28.10;90.20;;;;;;5090103;28;20191;-75
2022/07/21 03:58:21;;;;;;;9.02;5.97;;;28.20;90.00;;;;;;5091881;28;20245;-75
2022/07/21 04:00:47;;;;;;;7.80;5.95;;;27.80;90.00;;;;;;5092470;28;20194;-75
2022/07/21 04:03:12;;;;;;;7.20;5.40;;;27.40;90.50;;;;;;5092584;28;20687;-76
2022/07/21 04:05:39;;;;;;;7.18;5.80;;;27.10;91.20;;;;;;5092689;28;20789;-75
2022/07/21 04:08:08;;;;;;;7.80;5.93;;;26.80;91.60;;;;;;5073731;28;20206;-75
2022/07/21 04:10:35;;;;;;;7.97;5.95;;;26.80;92.00;;;;;;5091938;28;20271;-75
2022/07/21 04:13:03;;;;;;;11.40;6.25;;;26.90;92.00;;;;;;5092264;28;20776;-75
2022/07/21 04:15:29;;;;;;;8.65;6.03;;;26.90;92.00;;;;;;5092070;28;20218;-75
2022/07/21 04:17:55;;;;;;;7.32;5.50;;;26.90;91.90;;;;;;5115727;22;21027;-73
2022/07/21 04:20:21;;;;;;;8.35;5.43;;;27.20;91.90;;;;;;5086912;28;20173;-73
2022/07/21 04:22:48;;;;;;;7.43;5.53;;;27.30;91.70;;;;;;5092267;28;20199;-73
2022/07/21 04:25:15;;;;;;;9.40;5.53;;;27.70;91.50;;;;;;5090422;28;20225;-73
2022/07/21 04:27:41;;;;;;;9.30;5.43;;;28.60;90.50;;;;;;5090680;28;21442;-73
2022/07/21 04:30:09;;;;;;;9.50;5.50;;;29.60;88.90;;;;;;5083615;28;20170;-73
2022/07/21 04:32:35;;;;;;;12.50;6.30;;;30.30;86.60;;;;;;5082027;28;20197;-73
2022/07/21 04:35:00;;;;;;;10.18;6.03;;;30.50;85.60;;;;;;5063860;28;20260;-72
2022/07/21 04:37:27;;;;;;;8.07;5.18;;;30.20;85.70;;;;;;5082540;28;20206;-72
2022/07/21 04:39:52;;;;;;;7.65;5.95;;;30.00;85.60;;;;;;5079831;28;20632;-71
2022/07/21 04:42:18;;;;;;;17.00;6.03;;;29.40;87.00;;;;;;5080158;28;20203;-71
2022/07/21 04:44:43;;;;;;;11.15;5.50;;;29.60;87.50;;;;;;5083381;28;20204;-70
2022/07/21 04:47:09;;;;;;;7.65;6.28;;;30.10;86.70;;;;;;5083016;28;20202;-71
2022/07/21 04:49:34;;;;;;;13.88;8.00;;;30.40;86.30;;;;;;5081263;28;20289;-72
2022/07/21 04:52:00;;;;;;;10.65;8.38;;;31.40;84.80;;;;;;5081143;28;20214;-72
2022/07/21 04:54:26;;;;;;;13.75;9.77;;;30.60;85.10;;;;;;5082515;28;20206;-72
2022/07/21 04:56:51;;;;;;;13.50;10.50;;;29.90;87.00;;;;;;5055704;28;20170;-72
2022/07/21 04:59:17;;;;;;;17.13;11.57;;;29.50;89.00;;;;;;5091777;28;20209;-72
2022/07/21 05:01:42;;;;;;;16.58;13.13;;;29.00;90.30;;;;;;5091498;28;20407;-72
2022/07/21 05:04:08;;;;;;;17.00;13.07;;;28.60;91.80;;;;;;5091696;28;20194;-71
2022/07/21 05:06:34;;;;;;;21.48;13.20;;;28.20;92.30;;;;;;5073340;28;20214;-73
2022/07/21 05:08:59;;;;;;;16.65;14.15;;;28.00;93.00;;;;;;5073490;28;20190;-73
2022/07/21 05:11:25;;;;;;;21.35;14.38;;;27.90;93.40;;;;;;5091894;28;20265;-72
2022/07/21 05:13:51;;;;;;;21.77;14.95;;;28.20;93.70;;;;;;5070262;28;20293;-72
2022/07/21 05:16:17;;;;;;;19.63;16.73;;;28.80;93.00;;;;;;5073376;28;20205;-73
2022/07/21 05:18:42;;;;;;;18.23;15.80;;;30.30;92.00;;;;;;5090658;28;20218;-74
2022/07/21 05:21:08;;;;;;;20.05;15.65;;;31.90;90.10;;;;;;5091489;28;20206;-72
2022/07/21 05:23:33;;;;;;;111.82;20.88;;;31.50;88.10;;;;;;5075301;28;20174;-72
2022/07/21 05:25:59;;;;;;;22.02;15.10;;;32.80;87.60;;;;;;5073147;28;20194;-72
2022/07/21 05:28:26;;;;;;;49.05;17.80;;;34.10;84.00;;;;;;5079453;28;20267;-73
2022/07/21 05:30:52;;;;;;;33.75;15.95;;;35.10;81.40;;;;;;5090951;28;20202;-72
2022/07/21 05:33:17;;;;;;;20.05;15.73;;;35.80;79.60;;;;;;5091136;28;20225;-73
2022/07/21 05:35:43;;;;;;;17.45;15.55;;;35.40;78.90;;;;;;5091369;28;20185;-73
2022/07/21 05:38:08;;;;;;;22.08;16.23;;;35.50;78.80;;;;;;5072605;28;20292;-72
2022/07/21 05:40:34;;;;;;;22.40;16.83;;;35.70;78.30;;;;;;5090811;28;20214;-73
2022/07/21 05:42:59;;;;;;;19.67;17.58;;;36.00;77.70;;;;;;5077542;28;20671;-72
2022/07/21 05:45:25;;;;;;;18.50;16.50;;;36.10;77.20;;;;;;5088409;28;20698;-71
2022/07/21 05:47:50;;;;;;;22.92;16.65;;;36.30;76.60;;;;;;5091610;28;20182;-70
2022/07/21 05:50:16;;;;;;;18.90;14.57;;;36.00;76.40;;;;;;5090780;28;20194;-72
2022/07/21 05:52:42;;;;;;;17.88;15.80;;;35.30;77.60;;;;;;5072676;28;20206;-72
2022/07/21 05:55:08;;;;;;;23.92;16.63;;;35.20;77.40;;;;;;5091273;28;20208;-72
2022/07/21 05:57:33;;;;;;;28.40;16.40;;;35.60;77.50;;;;;;5072410;28;20209;-72
2022/07/21 05:59:59;;;;;;;21.35;16.27;;;36.10;76.70;;;;;;5089766;28;20578;-72
2022/07/21 06:02:26;;;;;;;20.63;15.65;;;36.10;75.90;;;;;;5091178;28;20179;-71
2022/07/21 06:04:52;;;;;;;20.80;16.08;;;36.10;75.40;;;;;;5090876;28;20206;-71
2022/07/21 06:07:18;;;;;;;24.38;15.52;;;35.70;75.90;;;;;;5090945;28;20202;-71
2022/07/21 06:09:43;;;;;;;23.38;16.17;;;36.10;75.60;;;;;;5090483;28;20209;-72
2022/07/21 06:12:09;;;;;;;20.98;15.77;;;36.30;75.10;;;;;;5090857;28;20285;-72
2022/07/21 06:14:35;;;;;;;45.40;18.13;;;36.60;74.40;;;;;;5090190;28;20178;-73
2022/07/21 06:17:00;;;;;;;18.23;15.50;;;36.40;74.30;;;;;;5090787;28;20210;-72
2022/07/21 06:19:26;;;;;;;27.60;15.65;;;36.50;74.00;;;;;;5090140;28;20214;-72
2022/07/21 06:21:51;;;;;;;44.30;17.38;;;37.30;73.00;;;;;;5090610;28;20202;-72
2022/07/21 06:24:19;;;;;;;19.00;15.70;;;37.30;72.20;;;;;;5090471;28;20625;-72
2022/07/21 06:26:45;;;;;;;27.20;15.60;;;37.90;71.30;;;;;;5084455;28;20631;-72
2022/07/21 06:29:10;;;;;;;16.55;14.88;;;37.40;71.00;;;;;;5070184;28;20289;-72
2022/07/21 06:31:36;;;;;;;25.17;15.70;;;37.00;71.60;;;;;;5052487;28;20206;-71
2022/07/21 06:34:02;;;;;;;41.17;18.40;;;36.60;72.70;;;;;;5070636;28;20204;-71
2022/07/21 06:36:28;;;;;;;48.85;19.20;;;36.40;72.70;;;;;;5070167;28;20268;-72
2022/07/21 06:38:53;;;;;;;54.15;18.88;;;35.80;74.20;;;;;;5069949;28;20193;-71
2022/07/21 06:41:19;;;;;;;38.13;18.15;;;36.10;73.90;;;;;;5078510;28;20182;-71
2022/07/21 06:43:44;;;;;;;19.38;15.05;;;36.50;73.00;;;;;;5089300;28;20213;-72
2022/07/21 06:46:10;;;;;;;19.38;14.27;;;36.60;73.20;;;;;;5090118;28;20198;-72
2022/07/21 06:48:35;;;;;;;15.75;14.00;;;36.80;72.30;;;;;;5089839;28;20217;-71
2022/07/21 06:51:01;;;;;;;16.45;13.85;;;37.70;71.00;;;;;;5090281;28;20170;-72
2022/07/21 06:53:27;;;;;;;38.08;15.38;;;37.90;70.60;;;;;;5090443;28;20209;-73
2022/07/21 06:55:53;;;;;;;21.35;15.02;;;38.50;69.80;;;;;;5090089;28;20205;-72
2022/07/21 06:58:22;;;;;;;36.50;15.27;;;39.20;68.70;;;;;;5089606;28;20267;-72
2022/07/21 07:00:48;;;;;;;44.55;16.08;;;39.30;68.20;;;;;;5090005;28;20339;-72
2022/07/21 07:03:14;;;;;;;85.97;18.88;;;39.40;67.90;;;;;;5089976;28;20205;-72
2022/07/21 07:05:41;;;;;;;21.83;14.68;;;38.90;68.40;;;;;;5090497;28;20268;-72
2022/07/21 07:08:07;;;;;;;15.38;13.77;;;39.50;67.50;;;;;;5089631;28;20698;-72
2022/07/21 07:10:33;;;;;;;42.78;15.43;;;39.10;66.90;;;;;;5090561;28;20212;-71
2022/07/21 07:12:58;;;;;;;32.95;14.45;;;39.10;67.40;;;;;;5093397;28;20224;-72
2022/07/21 07:15:24;;;;;;;23.35;13.50;;;39.40;67.40;;;;;;5092834;28;20209;-72
2022/07/21 07:17:51;;;;;;;15.40;13.82;;;40.10;66.30;;;;;;5093631;28;20650;-72
2022/07/21 07:20:17;;;;;;;16.70;14.25;;;40.10;65.60;;;;;;5075534;28;20209;-72
2022/07/21 07:22:42;;;;;;;15.10;13.60;;;40.00;65.80;;;;;;5093308;28;20209;-72
2022/07/21 07:25:09;;;;;;;14.93;13.40;;;39.70;65.40;;;;;;5093390;28;20225;-72
2022/07/21 07:27:34;;;;;;;18.08;13.23;;;39.50;66.10;;;;;;5081803;28;20301;-72
2022/07/21 07:30:01;;;;;;;14.35;12.88;;;39.00;66.60;;;;;;5074938;28;20257;-72
2022/07/21 07:32:27;;;;;;;14.07;12.57;;;39.60;66.20;;;;;;5092752;28;20198;-72
2022/07/21 07:34:52;;;;;;;21.52;13.48;;;40.00;66.00;;;;;;5085804;28;20197;-71
2022/07/21 07:37:18;;;;;;;14.25;12.35;;;40.50;65.20;;;;;;5092914;28;20202;-72
2022/07/21 07:39:44;;;;;;;14.05;12.60;;;40.50;64.50;;;;;;5092601;28;20209;-72
2022/07/21 07:42:09;;;;;;;13.43;11.95;;;40.20;64.00;;;;;;5092675;28;20193;-72
2022/07/21 07:44:35;;;;;;;14.60;11.75;;;39.80;66.00;;;;;;5090681;28;20657;-72
2022/07/21 07:47:03;;;;;;;15.00;12.20;;;40.70;64.70;;;;;;5072632;28;20289;-72
2022/07/21 07:49:32;;;;;;;13.00;11.68;;;40.20;64.60;;;;;;5072490;28;20242;-73
2022/07/21 07:51:58;;;;;;;18.73;16.98;;;40.50;64.80;;;;;;5072730;28;20206;-72
2022/07/21 07:54:24;;;;;;;16.67;14.98;;;40.90;64.50;;;;;;5072573;28;20198;-73
2022/07/21 07:56:50;;;;;;;13.73;12.45;;;41.10;63.90;;;;;;5073170;28;20185;-73
2022/07/21 07:59:15;;;;;;;13.65;11.38;;;40.50;64.50;;;;;;5054434;28;20209;-72
2022/07/21 08:01:42;;;;;;;13.77;12.35;;;40.40;64.80;;;;;;5072360;28;20576;-73
2022/07/21 08:04:07;;;;;;;18.63;14.35;;;40.30;65.20;;;;;;5072986;28;20252;-72
2022/07/21 08:06:33;;;;;;;12.98;11.50;;;40.30;65.40;;;;;;5056401;28;20210;-73
2022/07/21 08:08:59;;;;;;;13.52;11.27;;;39.40;66.20;;;;;;5074276;28;20189;-72
2022/07/21 08:11:25;;;;;;;12.45;11.10;;;38.30;67.90;;;;;;5093482;28;20174;-72
2022/07/21 08:13:51;;;;;;;14.63;11.90;;;37.20;69.70;;;;;;5073803;28;20209;-72
2022/07/21 08:16:17;;;;;;;15.23;11.48;;;37.00;71.20;;;;;;5092630;28;20710;-72
2022/07/21 08:18:43;;;;;;;12.18;10.88;;;35.80;72.70;;;;;;5091783;28;20218;-72
2022/07/21 08:21:10;;;;;;;19.27;11.38;;;35.60;73.40;;;;;;5092443;28;20178;-72
2022/07/21 08:23:36;;;;;;;24.90;11.82;;;35.10;74.10;;;;;;5073486;28;20650;-72
2022/07/21 08:26:01;;;;;;;46.97;13.93;;;35.10;74.70;;;;;;5092083;28;20216;-71
2022/07/21 08:28:27;;;;;;;15.27;11.18;;;35.10;75.20;;;;;;5071664;28;20218;-72
2022/07/21 08:30:52;;;;;;;60.85;14.93;;;34.80;75.40;;;;;;5072109;28;20223;-71
2022/07/21 08:33:18;;;;;;;14.57;11.38;;;35.00;76.10;;;;;;5071777;28;20233;-72
2022/07/21 08:35:44;;;;;;;18.67;11.25;;;35.10;75.90;;;;;;5072393;28;20171;-72
2022/07/21 08:38:11;;;;;;;13.23;10.32;;;35.90;74.40;;;;;;5071256;28;20230;-72
2022/07/21 08:40:42;;;;;;;12.32;10.75;;;36.90;72.80;;;;;;5071716;28;20218;-73
2022/07/21 08:43:09;;;;;;;13.10;10.77;;;37.50;71.30;;;;;;5087049;28;20213;-72
2022/07/21 08:45:36;;;;;;;16.73;11.43;;;37.60;71.10;;;;;;5072856;28;20235;-73
2022/07/21 08:48:03;;;;;;;16.05;10.25;;;37.30;71.70;;;;;;5091599;28;20689;-72
2022/07/21 08:50:31;;;;;;;13.48;10.88;;;37.10;72.20;;;;;;5092173;28;20235;-71
2022/07/21 08:52:57;;;;;;;12.30;9.85;;;36.80;72.60;;;;;;5091997;28;20209;-71
2022/07/21 08:55:23;;;;;;;15.57;10.02;;;37.10;72.00;;;;;;5091777;28;20256;-72
2022/07/21 08:57:48;;;;;;;13.13;9.93;;;37.50;70.80;;;;;;5073002;28;20296;-72
2022/07/21 09:00:14;;;;;;;23.17;11.38;;;38.30;69.80;;;;;;5091641;28;20289;-73
2022/07/21 09:02:40;;;;;;;13.05;9.48;;;38.90;68.70;;;;;;5092003;28;20188;-71
2022/07/21 09:05:08;;;;;;;11.52;9.75;;;39.00;67.90;;;;;;5091637;28;20208;-71
2022/07/21 09:07:47;;;;;;;14.13;10.25;;;39.10;68.00;;;;;;5090980;28;20206;-72
2022/07/21 09:10:13;;;;;;;13.02;10.52;;;39.50;67.20;;;;;;5091414;28;20299;-72
2022/07/21 09:12:59;;;;;;;21.92;10.40;;;39.20;67.20;;;;;;5091372;28;21127;-72
2022/07/21 09:15:26;;;;;;;12.57;9.05;;;38.00;68.70;;;;;;5090485;28;20206;-72
2022/07/21 09:18:13;;;;;;;20.15;9.60;;;36.70;70.50;;;;;;5090940;28;20648;-72
2022/07/21 09:20:47;;;;;;;12.25;9.45;;;36.70;72.10;;;;;;5091822;28;20190;-72
2022/07/21 09:23:18;;;;;;;14.15;9.07;;;37.00;71.00;;;;;;5091269;28;20202;-72
2022/07/21 09:25:49;;;;;;;12.15;8.68;;;36.90;71.00;;;;;;5091113;28;20202;-72
2022/07/21 09:28:19;;;;;;;9.88;8.75;;;36.90;71.10;;;;;;5072027;28;20203;-72
2022/07/21 09:30:51;;;;;;;17.05;9.05;;;37.50;70.70;;;;;;5070870;28;20199;-73
2022/07/21 09:33:33;;;;;;;12.98;8.35;;;38.20;69.60;;;;;;5086969;28;20730;-73
2022/07/21 09:36:19;;;;;;;11.90;9.13;;;38.40;68.60;;;;;;5078310;28;20180;-72
2022/07/21 09:38:52;;;;;;;12.27;8.80;;;38.50;68.40;;;;;;5090376;28;20964;-73
2022/07/21 09:41:23;;;;;;;9.13;8.05;;;38.40;68.80;;;;;;5073175;28;20214;-72
2022/07/21 09:43:52;;;;;;;11.68;8.48;;;37.90;68.90;;;;;;5074444;28;20205;-72
2022/07/21 09:46:28;;;;;;;14.25;8.23;;;38.00;69.60;;;;;;5091202;28;20198;-71
2022/07/21 09:48:57;;;;;;;8.40;7.55;;;38.00;69.40;;;;;;5076193;28;20201;-71
2022/07/21 09:51:37;;;;;;;13.65;7.65;;;37.90;68.30;;;;;;5090907;28;20210;-72
2022/07/21 09:54:11;;;;;;;15.23;8.43;;;37.60;69.60;;;;;;5090818;28;20177;-72
2022/07/21 09:56:42;;;;;;;10.65;8.40;;;37.30;70.30;;;;;;5091462;28;20170;-72
2022/07/21 09:59:10;;;;;;;17.13;8.50;;;37.00;70.50;;;;;;5090473;28;20209;-73
2022/07/21 10:01:37;;;;;;;12.75;8.75;;;36.60;71.10;;;;;;5090593;28;20209;-72
2022/07/21 10:04:03;;;;;;;14.23;8.02;;;36.00;72.30;;;;;;5090931;28;20695;-72
2022/07/21 10:06:32;;;;;;;13.38;8.98;;;35.90;73.20;;;;;;5072373;28;20217;-72
2022/07/21 10:08:59;;;;;;;11.93;7.90;;;35.90;73.00;;;;;;5090264;28;20194;-72
2022/07/21 10:11:26;;;;;;;11.98;8.93;;;36.00;73.00;;;;;;5091115;28;20167;-72
2022/07/21 10:13:52;;;;;;;8.73;7.57;;;35.70;72.80;;;;;;5089695;28;20209;-72
2022/07/21 10:16:19;;;;;;;10.30;7.40;;;35.40;73.20;;;;;;5074029;28;20212;-72
2022/07/21 10:19:14;;;;;;;8.98;7.63;;;35.20;74.30;;;;;;5115415;22;20221;-70
2022/07/21 10:21:46;;;;;;;8.98;6.70;;;34.80;74.50;;;;;;5063149;28;20223;-75
2022/07/21 10:24:12;;;;;;;9.15;6.53;;;34.00;75.40;;;;;;5056869;28;20701;-75
2022/07/21 10:27:01;;;;;;;11.95;6.63;;;33.40;76.50;;;;;;5051025;28;20179;-75
2022/07/21 10:29:53;;;;;;;8.43;6.68;;;33.60;77.00;;;;;;5051655;28;20965;-78
2022/07/21 10:32:27;;;;;;;9.80;6.93;;;33.50;77.20;;;;;;5030788;28;20252;-75
2022/07/21 10:34:54;;;;;;;12.68;6.57;;;33.40;77.10;;;;;;5030712;28;20204;-75
2022/07/21 10:37:38;;;;;;;9.05;6.45;;;33.30;77.50;;;;;;5023895;28;20627;-76
2022/07/21 10:40:20;;;;;;;11.60;6.95;;;33.50;77.60;;;;;;5030360;28;20201;-75
2022/07/21 10:43:06;;;;;;;7.03;6.32;;;33.20;77.60;;;;;;5030426;28;20200;-75
2022/07/21 10:45:37;;;;;;;8.32;6.43;;;33.00;78.00;;;;;;4999858;28;20255;-76
2022/07/21 10:48:08;;;;;;;14.25;10.15;;;32.70;78.90;;;;;;5033926;28;20641;-73
2022/07/21 10:50:39;;;;;;;14.23;7.93;;;32.60;79.40;;;;;;5034489;28;20208;-75
2022/07/21 10:53:16;;;;;;;7.18;5.70;;;32.70;79.90;;;;;;5034801;28;20214;-75
2022/07/21 10:55:49;;;;;;;8.30;6.50;;;32.20;80.30;;;;;;5016551;28;20696;-75
2022/07/21 10:58:27;;;;;;;10.27;5.70;;;32.40;80.20;;;;;;5033852;28;20203;-75
2022/07/21 11:01:15;;;;;;;10.85;5.70;;;32.70;80.50;;;;;;5041481;28;20208;-76
2022/07/21 11:03:42;;;;;;;15.90;5.80;;;33.30;79.20;;;;;;5034261;28;20204;-75
2022/07/21 11:06:27;;;;;;;6.88;5.78;;;33.60;78.20;;;;;;5034502;28;20173;-76
2022/07/21 11:09:06;;;;;;;7.65;5.43;;;33.90;77.70;;;;;;5035579;28;20259;-75
2022/07/21 11:11:53;;;;;;;9.57;5.55;;;33.80;77.30;;;;;;5018755;28;20230;-76
2022/07/21 11:14:20;;;;;;;7.80;4.82;;;33.40;78.10;;;;;;5029021;28;20204;-75
2022/07/21 11:16:49;;;;;;;10.48;5.60;;;33.50;77.80;;;;;;5042837;28;20210;-75
2022/07/21 11:19:38;;;;;;;9.57;5.13;;;33.70;78.20;;;;;;5034253;28;20235;-76
2022/07/21 11:22:09;;;;;;;8.20;6.70;;;33.30;77.40;;;;;;5041594;28;20708;-75
2022/07/21 11:24:35;;;;;;;14.00;7.07;;;33.30;78.20;;;;;;5034642;28;20239;-75
2022/07/21 11:27:18;;;;;;;11.60;5.50;;;33.40;78.30;;;;;;5049504;28;20183;-75
2022/07/21 11:29:51;;;;;;;14.02;5.78;;;33.50;78.40;;;;;;5016475;28;20563;-74
2022/07/21 11:32:18;;;;;;;7.28;5.15;;;33.40;78.60;;;;;;5016142;28;20278;-75
2022/07/21 11:34:55;;;;;;;8.18;5.50;;;33.20;78.70;;;;;;5034996;28;20212;-76
2022/07/21 11:37:32;;;;;;;11.85;5.70;;;33.20;78.60;;;;;;5035836;28;20200;-77
2022/07/21 11:39:58;;;;;;;9.98;5.97;;;33.10;79.30;;;;;;5035351;28;20219;-75
2022/07/21 11:42:25;;;;;;;8.10;5.57;;;33.20;79.50;;;;;;5036365;28;20272;-75
2022/07/21 11:44:51;;;;;;;9.77;5.88;;;33.00;79.50;;;;;;5044754;28;20211;-74
2022/07/21 11:47:16;;;;;;;7.95;5.70;;;32.90;80.20;;;;;;5036716;28;20173;-76
2022/07/21 11:49:43;;;;;;;7.88;6.00;;;32.80;80.40;;;;;;5039119;28;20273;-74
2022/07/21 11:52:19;;;;;;;7.40;5.75;;;32.80;80.50;;;;;;5051229;28;20595;-75
2022/07/21 11:54:46;;;;;;;8.95;6.38;;;32.80;80.20;;;;;;5035332;28;20258;-75
2022/07/21 11:57:13;;;;;;;13.05;6.22;;;32.70;80.20;;;;;;5034757;28;20210;-74
2022/07/21 11:59:42;;;;;;;22.67;7.72;;;32.30;80.90;;;;;;5035657;28;20192;-74
2022/07/21 12:02:33;;;;;;;20.48;7.65;;;32.20;81.80;;;;;;5017697;28;20625;-75
2022/07/21 12:05:01;;;;;;;7.72;5.82;;;31.80;82.70;;;;;;5034239;28;20295;-75
2022/07/21 12:07:27;;;;;;;7.30;5.63;;;31.50;83.90;;;;;;5017024;28;20212;-75
2022/07/21 12:09:59;;;;;;;11.90;5.85;;;31.40;84.20;;;;;;5043673;28;20234;-75
2022/07/21 12:12:45;;;;;;;12.10;5.97;;;31.70;84.40;;;;;;5035383;28;20223;-75
2022/07/21 12:15:28;;;;;;;10.65;5.15;;;31.80;83.50;;;;;;5037596;28;20255;-74
2022/07/21 12:18:02;;;;;;;8.35;5.60;;;31.70;83.60;;;;;;5034199;28;20585;-74
2022/07/21 12:20:30;;;;;;;11.25;6.65;;;31.50;84.40;;;;;;5016699;28;20708;-75
2022/07/21 12:22:57;;;;;;;7.00;5.43;;;31.40;85.70;;;;;;5016146;28;20200;-75
2022/07/21 12:25:34;;;;;;;10.68;6.70;;;31.20;89.10;;;;;;5050332;28;20226;-76
2022/07/21 12:28:01;;;;;;;8.18;6.13;;;31.10;90.80;;;;;;5036144;28;20238;-75
2022/07/21 12:30:46;;;;;;;10.82;6.10;;;30.70;90.30;;;;;;5017241;28;20220;-75
2022/07/21 12:33:20;;;;;;;10.65;5.90;;;30.70;90.90;;;;;;5046770;28;20250;-74
2022/07/21 12:36:03;;;;;;;8.82;5.90;;;30.50;91.70;;;;;;5023997;28;20668;-72
2022/07/21 12:38:55;;;;;;;9.35;6.50;;;30.10;92.50;;;;;;5026240;28;20250;-73
2022/07/21 12:41:22;;;;;;;9.88;6.63;;;30.20;93.20;;;;;;5026499;28;20299;-70
2022/07/21 12:44:01;;;;;;;10.48;6.20;;;30.20;95.00;;;;;;5039796;28;20601;-70
2022/07/21 12:46:35;;;;;;;15.82;7.18;;;30.20;95.80;;;;;;5031768;28;20688;-71